Time;durP1;ratioP1;P1;durP2;ratioP2;P2;SDS_P1;SDS_P2;PMS_P1;PMS_P2;Temp;Humidity;BMP_temperature;BMP_pressure;BME280_temperature;BME280_humidity;BME280_pressure;Samples;Min_cycle;Max_cycle;Signal;HPM_P1;HPM_P2
2023/06/09 00:00:33;;;;;;;11.77;10.77;;;;;;;17.73;97.63;92665.44;4996421;28;20231;-79
2023/06/09 00:02:58;;;;;;;12.30;11.30;;;;;;;17.82;97.55;92666.16;5013571;28;20219;-79
2023/06/09 00:05:25;;;;;;;11.23;10.33;;;;;;;17.74;97.96;92656.41;5000797;28;20227;-79
2023/06/09 00:07:52;;;;;;;12.13;11.03;;;;;;;17.66;98.54;92660.66;4998815;28;20188;-79
2023/06/09 00:10:18;;;;;;;11.17;10.23;;;;;;;17.56;98.64;92655.75;5007921;28;20227;-79
2023/06/09 00:12:47;;;;;;;11.03;10.37;;;;;;;17.65;98.90;92666.25;5009900;28;20226;-79
2023/06/09 00:15:14;;;;;;;10.93;10.13;;;;;;;17.46;98.99;92669.31;5008848;28;20246;-79
2023/06/09 00:17:41;;;;;;;12.27;11.27;;;;;;;17.30;98.92;92657.72;5014659;28;20198;-79
2023/06/09 00:20:08;;;;;;;13.10;11.67;;;;;;;17.11;99.27;92679.22;5003976;28;20298;-79
2023/06/09 00:22:35;;;;;;;12.37;11.57;;;;;;;17.23;99.92;92668.75;4990903;28;20182;-80
2023/06/09 00:25:01;;;;;;;10.70;10.00;;;;;;;17.36;98.90;92673.06;5010482;28;20231;-79
2023/06/09 00:27:26;;;;;;;12.67;11.50;;;;;;;17.45;98.58;92670.38;5010350;28;20206;-79
2023/06/09 00:29:52;;;;;;;12.13;11.03;;;;;;;17.45;98.50;92673.03;4992618;28;20230;-79
2023/06/09 00:32:17;;;;;;;11.63;10.73;;;;;;;17.41;98.21;92664.97;5016147;28;20196;-79
2023/06/09 00:34:43;;;;;;;12.60;11.40;;;;;;;17.33;98.15;92663.13;5009726;28;20286;-79
2023/06/09 00:37:09;;;;;;;11.80;10.97;;;;;;;17.26;98.11;92648.91;5012541;28;20210;-79
2023/06/09 00:39:34;;;;;;;12.07;11.27;;;;;;;17.10;99.01;92643.38;5016559;28;20215;-79
2023/06/09 00:42:00;;;;;;;12.10;11.10;;;;;;;17.04;99.86;92654.41;5015568;28;20253;-79
2023/06/09 00:44:26;;;;;;;12.93;11.93;;;;;;;17.27;99.27;92659.13;5013039;28;20238;-79
2023/06/09 00:46:51;;;;;;;12.50;11.73;;;;;;;17.24;98.99;92665.06;5018315;28;20238;-79
2023/06/09 00:49:18;;;;;;;11.43;10.63;;;;;;;16.83;100.00;92643.78;5014142;28;20246;-80
2023/06/09 00:51:45;;;;;;;12.43;11.50;;;;;;;16.99;100.00;92662.50;5008164;28;20191;-79
2023/06/09 00:54:12;;;;;;;12.67;11.60;;;;;;;16.92;99.67;92626.06;5013554;28;20199;-79
2023/06/09 00:56:39;;;;;;;12.00;11.00;;;;;;;17.00;100.00;92670.09;5013626;28;20191;-80
2023/06/09 00:59:07;;;;;;;12.03;11.17;;;;;;;16.87;99.56;92639.41;5012516;28;20918;-80
2023/06/09 01:01:33;;;;;;;12.07;11.10;;;;;;;17.04;99.27;92652.53;5018442;28;20218;-79
2023/06/09 01:03:59;;;;;;;11.00;10.30;;;;;;;16.91;99.33;92647.47;5013284;28;20187;-75
2023/06/09 01:06:38;;;;;;;12.30;11.40;;;;;;;16.91;99.68;92658.81;5011918;28;20191;-74
2023/06/09 01:09:18;;;;;;;13.13;12.13;;;;;;;16.79;100.00;92653.41;4996967;28;20187;-74
2023/06/09 01:11:53;;;;;;;12.73;11.57;;;;;;;16.91;100.00;92656.16;5002875;28;20219;-75
2023/06/09 01:14:26;;;;;;;12.40;11.50;;;;;;;16.77;100.00;92638.97;5012798;28;20238;-75
2023/06/09 01:17:13;;;;;;;12.40;11.43;;;;;;;16.72;100.00;92647.06;5013041;28;20222;-74
2023/06/09 01:19:43;;;;;;;14.17;12.87;;;;;;;16.65;99.98;92638.88;4995086;28;20234;-75
2023/06/09 01:22:17;;;;;;;13.03;11.70;;;;;;;16.67;100.00;92648.00;5012815;28;20218;-74
2023/06/09 01:25:04;;;;;;;13.07;12.07;;;;;;;16.62;100.00;92642.13;5001162;28;20267;-74
2023/06/09 01:27:32;;;;;;;12.83;11.60;;;;;;;16.50;100.00;92645.41;5013994;28;20207;-74
2023/06/09 01:29:59;;;;;;;13.47;12.43;;;;;;;16.47;100.00;92643.41;5013389;28;20254;-73
2023/06/09 01:32:26;;;;;;;12.13;11.33;;;;;;;16.31;100.00;92612.56;5005466;28;20191;-75
2023/06/09 01:34:53;;;;;;;12.97;11.67;;;;;;;16.41;100.00;92647.25;5011264;28;20219;-74
2023/06/09 01:37:18;;;;;;;13.30;11.97;;;;;;;16.28;100.00;92631.63;5012697;28;20191;-74
2023/06/09 01:39:46;;;;;;;12.20;11.20;;;;;;;16.22;100.00;92646.06;5011887;28;20234;-74
2023/06/09 01:42:12;;;;;;;13.33;12.33;;;;;;;16.25;100.00;92640.91;5013431;28;20210;-75
2023/06/09 01:44:37;;;;;;;13.20;12.30;;;;;;;16.13;100.00;92661.06;5011075;28;20226;-74
2023/06/09 01:47:03;;;;;;;13.07;12.07;;;;;;;16.11;100.00;92652.72;5001706;28;20211;-74
2023/06/09 01:49:47;;;;;;;13.00;12.10;;;;;;;16.02;100.00;92635.06;5009348;28;20242;-73
2023/06/09 01:52:21;;;;;;;12.37;11.50;;;;;;;16.19;100.00;92671.13;5013941;28;20180;-74
2023/06/09 01:55:07;;;;;;;12.30;11.40;;;;;;;16.16;100.00;92660.44;5012310;28;20279;-74
2023/06/09 01:57:49;;;;;;;12.00;11.10;;;;;;;16.19;100.00;92659.84;5012815;28;20179;-74
2023/06/09 02:00:15;;;;;;;15.93;11.60;;;;;;;16.17;100.00;92662.81;5016227;28;20241;-73
2023/06/09 02:02:42;;;;;;;12.37;11.37;;;;;;;16.20;100.00;92661.38;5004951;28;20217;-74
2023/06/09 02:05:09;;;;;;;13.13;11.80;;;;;;;15.93;100.00;92631.66;5011170;28;20219;-74
2023/06/09 02:07:36;;;;;;;13.27;11.93;;;;;;;15.90;100.00;92647.28;5012897;28;20207;-73
2023/06/09 02:10:02;;;;;;;12.13;11.03;;;;;;;15.92;100.00;92658.31;5011812;28;20231;-74
2023/06/09 02:12:32;;;;;;;11.77;10.77;;;;;;;15.90;100.00;92661.25;5000524;28;20215;-74
2023/06/09 02:14:59;;;;;;;12.47;11.57;;;;;;;16.06;100.00;92659.69;5012133;28;20215;-74
2023/06/09 02:17:25;;;;;;;12.43;11.47;;;;;;;15.79;100.00;92640.78;5012957;28;20187;-74
2023/06/09 02:19:50;;;;;;;13.50;12.17;;;;;;;15.93;100.00;92658.00;5012046;28;20216;-74
2023/06/09 02:22:16;;;;;;;12.60;11.80;;;;;;;15.87;100.00;92663.72;5012763;28;20246;-74
2023/06/09 02:24:42;;;;;;;12.80;11.90;;;;;;;15.61;100.00;92637.34;5010517;28;20923;-74
2023/06/09 02:27:07;;;;;;;12.47;11.67;;;;;;;15.69;100.00;92643.69;5010939;28;20251;-74
2023/06/09 02:29:32;;;;;;;12.47;11.57;;;;;;;15.85;100.00;92660.59;5015603;28;20218;-73
2023/06/09 02:31:59;;;;;;;11.90;11.10;;;;;;;15.91;100.00;92654.09;5011617;28;20198;-74
2023/06/09 02:34:26;;;;;;;11.50;10.50;;;;;;;15.84;100.00;92664.34;5011222;28;20251;-74
2023/06/09 02:36:55;;;;;;;12.10;11.20;;;;;;;15.59;100.00;92663.22;5012202;28;20183;-74
2023/06/09 02:39:21;;;;;;;13.13;11.20;;;;;;;15.71;100.00;92660.75;5011075;28;20242;-74
2023/06/09 02:41:47;;;;;;;12.13;11.23;;;;;;;15.42;100.00;92631.63;5011822;28;20211;-74
2023/06/09 02:44:13;;;;;;;12.00;11.20;;;;;;;15.52;100.00;92651.56;5010916;28;20194;-74
2023/06/09 02:46:40;;;;;;;13.33;12.40;;;;;;;15.50;100.00;92653.75;5011183;28;20211;-74
2023/06/09 02:49:06;;;;;;;13.20;12.10;;;;;;;15.56;100.00;92657.78;5024200;28;20206;-74
2023/06/09 02:51:31;;;;;;;11.83;10.73;;;;;;;15.37;100.00;92641.47;5015862;28;20194;-74
2023/06/09 02:53:56;;;;;;;11.93;11.13;;;;;;;15.54;100.00;92654.69;5017555;28;20202;-74
2023/06/09 02:56:22;;;;;;;10.87;10.13;;;;;;;15.61;100.00;92662.91;4993701;28;20234;-73
2023/06/09 02:58:48;;;;;;;12.10;11.27;;;;;;;15.55;100.00;92650.97;5014270;28;20197;-74
2023/06/09 03:01:19;;;;;;;12.07;11.23;;;;;;;15.56;100.00;92647.25;5009350;28;20286;-73
2023/06/09 03:03:45;;;;;;;16.27;12.90;;;;;;;15.85;100.00;92660.59;5011363;28;20223;-74
2023/06/09 03:06:13;;;;;;;12.27;11.43;;;;;;;15.79;100.00;92640.78;5011409;28;20219;-75
2023/06/09 03:08:41;;;;;;;12.37;11.27;;;;;;;16.15;99.74;92662.31;5022816;28;20187;-74
2023/06/09 03:11:07;;;;;;;12.57;11.40;;;;;;;16.23;99.37;92658.91;5010547;28;20291;-74
2023/06/09 03:13:32;;;;;;;11.93;10.83;;;;;;;16.53;97.36;92650.06;5014519;28;20183;-75
2023/06/09 03:15:58;;;;;;;12.13;11.23;;;;;;;16.49;96.74;92645.72;5009649;28;20258;-74
2023/06/09 03:18:24;;;;;;;12.10;11.20;;;;;;;16.68;95.84;92644.28;5011326;28;20771;-74
2023/06/09 03:20:51;;;;;;;12.67;11.43;;;;;;;16.58;95.48;92647.25;5009929;28;20215;-74
2023/06/09 03:23:18;;;;;;;11.93;10.93;;;;;;;16.79;94.78;92652.63;5010948;28;20183;-74
2023/06/09 03:25:44;;;;;;;11.47;10.63;;;;;;;17.06;93.13;92644.31;5015205;28;20211;-73
2023/06/09 03:28:09;;;;;;;12.27;11.47;;;;;;;17.32;92.46;92652.91;5014832;28;20218;-74
2023/06/09 03:30:35;;;;;;;12.10;10.90;;;;;;;17.43;91.34;92652.19;5010305;28;20246;-74
2023/06/09 03:33:00;;;;;;;10.80;10.10;;;;;;;17.20;91.82;92632.44;5011695;28;20195;-74
2023/06/09 03:35:26;;;;;;;11.83;11.03;;;;;;;17.75;90.67;92653.44;5009971;28;20227;-75
2023/06/09 03:37:51;;;;;;;10.83;10.23;;;;;;;17.64;88.88;92625.88;5009260;28;20191;-75
2023/06/09 03:40:16;;;;;;;11.27;10.37;;;;;;;18.04;88.26;92660.56;5010739;28;20283;-74
2023/06/09 03:42:42;;;;;;;11.30;10.40;;;;;;;18.23;87.98;92645.00;5016504;28;20211;-74
2023/06/09 03:45:08;;;;;;;12.47;11.47;;;;;;;18.50;87.13;92660.34;5008850;28;20226;-73
2023/06/09 03:47:33;;;;;;;11.57;10.60;;;;;;;18.50;87.43;92658.50;5007341;28;20197;-74
2023/06/09 03:49:58;;;;;;;11.57;10.50;;;;;;;18.57;88.06;92665.88;5010945;28;20262;-70
2023/06/09 03:52:26;;;;;;;11.60;10.50;;;;;;;18.84;87.11;92665.31;5009002;28;20187;-67
2023/06/09 03:54:51;;;;;;;11.97;10.80;;;;;;;19.47;83.59;92664.75;5013932;28;20234;-72
2023/06/09 03:57:17;;;;;;;11.90;10.83;;;;;;;19.88;81.15;92675.09;5026407;28;20204;-69
2023/06/09 03:59:42;;;;;;;12.53;11.47;;;;;;;19.83;79.15;92663.97;5011679;28;20295;-70
2023/06/09 04:02:08;;;;;;;12.53;11.27;;;;;;;19.82;79.92;92681.75;5013830;28;20223;-69
2023/06/09 04:04:33;;;;;;;12.87;11.10;;;;;;;19.50;80.38;92660.69;5005830;28;20300;-70
2023/06/09 04:06:59;;;;;;;11.23;10.43;;;;;;;19.76;79.70;92677.00;5008279;28;20189;-68
2023/06/09 04:09:24;;;;;;;12.27;11.30;;;;;;;19.96;78.95;92679.50;5020692;28;20296;-68
2023/06/09 04:11:50;;;;;;;12.73;11.70;;;;;;;19.70;80.37;92681.75;5021044;28;20256;-69
2023/06/09 04:14:16;;;;;;;13.27;12.17;;;;;;;19.51;81.76;92680.75;4995762;28;20237;-69
2023/06/09 04:16:41;;;;;;;11.87;11.07;;;;;;;19.12;82.40;92684.78;5020609;28;20179;-71
2023/06/09 04:19:08;;;;;;;11.80;10.70;;;;;;;18.98;83.30;92671.06;5019844;28;20199;-67
2023/06/09 04:21:34;;;;;;;12.57;11.53;;;;;;;19.06;82.38;92675.50;5018477;28;20223;-72
2023/06/09 04:23:59;;;;;;;11.87;10.90;;;;;;;19.04;82.83;92675.81;5021129;28;20192;-70
2023/06/09 04:26:25;;;;;;;11.37;10.47;;;;;;;18.90;84.35;92691.22;5026009;28;20191;-69
2023/06/09 04:28:53;;;;;;;12.90;11.27;;;;;;;19.16;82.73;92699.66;5032397;28;20223;-70
2023/06/09 04:31:23;;;;;;;12.37;11.17;;;;;;;19.39;80.86;92694.78;5026452;28;20230;-71
2023/06/09 04:33:52;;;;;;;12.00;11.03;;;;;;;19.44;80.08;92683.94;5016203;28;20196;-78
2023/06/09 04:36:18;;;;;;;12.83;11.83;;;;;;;19.94;78.36;92692.31;5029681;28;20212;-81
2023/06/09 04:38:45;;;;;;;12.17;11.20;;;;;;;20.30;76.63;92705.53;5027970;28;20632;-82
2023/06/09 04:41:11;;;;;;;11.73;10.83;;;;;;;20.30;76.03;92707.41;5012899;28;20241;-83
2023/06/09 04:43:39;;;;;;;11.97;10.97;;;;;;;20.09;76.90;92701.47;5020380;28;20177;-83
2023/06/09 04:46:05;;;;;;;11.77;10.63;;;;;;;20.18;73.27;92660.50;5011809;28;20248;-85
2023/06/09 04:48:33;;;;;;;11.83;10.83;;;;;;;20.02;75.08;92686.13;5013203;28;20197;-83
2023/06/09 04:51:01;;;;;;;13.53;12.13;;;;;;;19.78;78.05;92704.69;5010595;28;20316;-84
2023/06/09 04:53:27;;;;;;;12.57;11.57;;;;;;;19.47;79.00;92704.47;5002950;28;20185;-83
2023/06/09 04:55:53;;;;;;;13.57;12.37;;;;;;;19.64;78.88;92706.94;5006234;28;20220;-83
2023/06/09 04:58:19;;;;;;;13.67;12.57;;;;;;;19.65;79.65;92708.47;5012768;28;20219;-83
2023/06/09 05:00:44;;;;;;;14.30;13.20;;;;;;;19.44;79.23;92681.28;5012341;28;20224;-83
2023/06/09 05:03:13;;;;;;;14.73;12.43;;;;;;;19.17;81.37;92685.31;5013974;28;20193;-83
2023/06/09 05:05:40;;;;;;;15.07;13.10;;;;;;;19.70;79.04;92708.25;5011289;28;20217;-83
2023/06/09 05:08:05;;;;;;;12.77;11.47;;;;;;;20.34;76.32;92718.91;5012527;28;20188;-84
2023/06/09 05:10:31;;;;;;;13.93;12.67;;;;;;;21.24;72.10;92711.16;5002020;28;20253;-83
2023/06/09 05:12:56;;;;;;;12.53;11.33;;;;;;;21.13;71.71;92702.13;5005907;28;20267;-84
2023/06/09 05:15:23;;;;;;;12.97;11.67;;;;;;;20.72;73.80;92686.63;5008695;28;20276;-83
2023/06/09 05:17:49;;;;;;;13.10;11.77;;;;;;;20.26;76.69;92711.84;4986887;28;20210;-83
2023/06/09 05:20:15;;;;;;;12.50;11.30;;;;;;;20.47;75.30;92697.31;5000097;28;20226;-84
2023/06/09 05:22:41;;;;;;;14.93;11.73;;;;;;;19.99;77.33;92699.25;4995650;28;20260;-83
2023/06/09 05:25:09;;;;;;;12.57;11.60;;;;;;;20.53;75.44;92698.63;4981864;28;20229;-82
2023/06/09 05:27:34;;;;;;;13.63;12.10;;;;;;;20.01;77.37;92707.66;5004525;28;20185;-83
2023/06/09 05:29:59;;;;;;;13.37;11.67;;;;;;;20.63;74.77;92714.06;5008828;28;20229;-82
2023/06/09 05:32:25;;;;;;;12.43;11.20;;;;;;;22.07;67.98;92685.84;5009807;28;20261;-84
2023/06/09 05:34:50;;;;;;;13.57;11.68;;;;;;;26.35;56.11;92710.00;5011191;28;20222;-84
2023/06/09 05:37:16;;;;;;;11.68;10.60;;;;;;;29.42;43.59;92684.91;5014986;28;20193;-82
2023/06/09 05:39:41;;;;;;;12.00;10.82;;;;;;;33.13;35.71;92726.69;5015944;28;20231;-84
2023/06/09 05:42:08;;;;;;;11.65;10.45;;;;;;;33.38;33.30;92718.81;5010818;28;20223;-83
2023/06/09 05:44:33;;;;;;;12.82;9.80;;;;;;;33.93;30.82;92738.56;5011985;28;20212;-84
2023/06/09 05:46:58;;;;;;;10.00;9.05;;;;;;;34.62;29.97;92731.94;5013082;28;20253;-83
2023/06/09 05:49:24;;;;;;;15.38;9.02;;;;;;;35.60;28.16;92739.41;5012220;28;20231;-84
2023/06/09 05:51:50;;;;;;;10.25;9.27;;;;;;;35.59;27.33;92724.31;5009655;28;20187;-81
2023/06/09 05:54:15;;;;;;;10.23;9.40;;;;;;;35.75;28.31;92721.50;5011910;28;20231;-83
2023/06/09 05:56:42;;;;;;;9.95;9.15;;;;;;;36.96;26.63;92739.06;5021448;28;20218;-84
2023/06/09 05:59:08;;;;;;;9.05;8.20;;;;;;;37.27;25.56;92729.06;4994765;28;20218;-85
2023/06/09 06:01:35;;;;;;;9.57;8.65;;;;;;;35.04;27.40;92721.94;5002921;28;20207;-85
2023/06/09 06:04:00;;;;;;;11.82;8.88;;;;;;;36.76;25.38;92723.03;5009595;28;20179;-84
2023/06/09 06:06:26;;;;;;;9.70;9.00;;;;;;;37.26;25.24;92734.97;5002620;28;20180;-87
2023/06/09 06:08:51;;;;;;;10.90;8.65;;;;;;;37.04;25.15;92724.78;4998858;28;20187;-85
2023/06/09 06:11:17;;;;;;;10.23;9.27;;;;;;;36.24;26.70;92739.03;4969574;28;20224;-80
2023/06/09 06:13:42;;;;;;;9.90;8.98;;;;;;;35.86;26.48;92727.44;4996608;28;20222;-83
2023/06/09 06:16:08;;;;;;;9.00;8.10;;;;;;;36.31;26.24;92730.72;4993016;28;20224;-84
2023/06/09 06:18:33;;;;;;;10.10;9.05;;;;;;;37.03;25.41;92708.88;5005795;28;20222;-87
2023/06/09 06:20:58;;;;;;;10.73;8.13;;;;;;;38.35;24.33;92726.94;5011510;28;20303;-85
2023/06/09 06:23:24;;;;;;;8.88;8.07;;;;;;;38.67;23.49;92728.44;5016361;28;20175;-85
2023/06/09 06:25:51;;;;;;;8.85;8.00;;;;;;;37.72;24.43;92707.56;5011539;28;20219;-85
2023/06/09 06:28:16;;;;;;;9.10;8.30;;;;;;;37.09;24.97;92721.47;5011721;28;20191;-85
2023/06/09 06:30:42;;;;;;;10.00;8.07;;;;;;;36.29;26.08;92705.09;5009232;28;20232;-84
2023/06/09 06:33:08;;;;;;;13.48;8.80;;;;;;;35.45;27.25;92722.78;5022699;28;20227;-84
2023/06/09 06:35:34;;;;;;;10.95;8.02;;;;;;;36.12;25.87;92715.34;5020876;28;20242;-84
2023/06/09 06:38:00;;;;;;;8.98;8.18;;;;;;;36.76;25.07;92703.22;5024368;28;20263;-84
2023/06/09 06:40:26;;;;;;;9.20;8.32;;;;;;;35.00;28.00;92713.91;5029444;28;20226;-83
2023/06/09 06:42:51;;;;;;;11.43;8.65;;;;;;;37.51;24.41;92721.97;5015280;28;20183;-85
2023/06/09 06:45:18;;;;;;;7.70;7.18;;;;;;;35.86;27.57;92710.34;5011178;28;20207;-85
2023/06/09 06:47:45;;;;;;;11.32;8.73;;;;;;;35.33;26.05;92718.00;5005136;28;20246;-82
2023/06/09 06:50:14;;;;;;;14.40;8.60;;;;;;;31.90;32.16;92702.50;5011407;28;20307;-84
2023/06/09 06:52:39;;;;;;;10.35;9.45;;;;;;;24.41;48.57;92625.63;5013269;28;20183;-84
2023/06/09 06:55:08;;;;;;;12.75;10.38;;;;;;;24.97;50.66;92680.50;4999513;28;20223;-85
2023/06/09 06:57:35;;;;;;;11.30;9.93;;;;;;;25.13;52.37;92667.69;5009259;28;20182;-84
2023/06/09 07:00:00;;;;;;;10.30;9.05;;;;;;;24.44;52.01;92680.94;5002053;28;20227;-85
2023/06/09 07:02:26;;;;;;;11.85;10.77;;;;;;;24.48;50.30;92647.06;5011040;28;20234;-82
2023/06/09 07:04:51;;;;;;;11.52;10.48;;;;;;;24.76;51.50;92674.16;4993893;28;20227;-84
2023/06/09 07:07:16;;;;;;;11.80;10.68;;;;;;;24.84;49.29;92678.44;5006613;28;20255;-85
2023/06/09 07:09:42;;;;;;;11.68;10.57;;;;;;;23.50;55.88;92673.81;5010697;28;20230;-84
2023/06/09 07:12:08;;;;;;;16.00;10.02;;;;;;;23.22;60.17;92667.22;5010064;28;20226;-83
2023/06/09 07:14:35;;;;;;;14.93;10.93;;;;;;;23.80;56.43;92673.16;5002163;28;20624;-84
2023/06/09 07:17:00;;;;;;;11.85;10.57;;;;;;;23.65;55.59;92672.94;5011292;28;20179;-84
2023/06/09 07:19:25;;;;;;;11.10;10.15;;;;;;;24.00;52.90;92677.31;5010654;28;20226;-85
2023/06/09 07:21:51;;;;;;;11.75;9.90;;;;;;;23.67;55.13;92673.34;4997822;28;20227;-85
2023/06/09 07:24:16;;;;;;;11.52;10.02;;;;;;;24.13;52.91;92673.28;5001540;28;20246;-85
2023/06/09 07:26:42;;;;;;;12.27;10.85;;;;;;;23.81;52.50;92677.34;4996777;28;20177;-82
2023/06/09 07:29:07;;;;;;;12.80;10.57;;;;;;;22.79;57.21;92657.69;5020968;28;20254;-84
2023/06/09 07:31:33;;;;;;;10.82;9.93;;;;;;;23.12;57.57;92679.25;5004371;28;20193;-85
2023/06/09 07:33:58;;;;;;;14.25;9.93;;;;;;;23.19;55.13;92658.03;5010689;28;20182;-84
2023/06/09 07:36:24;;;;;;;10.93;9.93;;;;;;;23.14;54.12;92652.25;5011546;28;20183;-84
2023/06/09 07:38:49;;;;;;;10.38;9.00;;;;;;;22.91;56.68;92676.16;5003337;28;21185;-84
2023/06/09 07:41:15;;;;;;;12.57;10.07;;;;;;;23.37;54.88;92666.38;4997769;28;20218;-84
2023/06/09 07:43:41;;;;;;;11.13;10.10;;;;;;;23.31;55.10;92665.13;5010124;28;20221;-85
2023/06/09 07:46:07;;;;;;;10.88;9.85;;;;;;;22.63;58.09;92664.22;5009985;28;20226;-84
2023/06/09 07:48:32;;;;;;;10.15;9.35;;;;;;;23.66;54.37;92677.13;5002761;28;20194;-83
2023/06/09 07:50:58;;;;;;;10.95;9.98;;;;;;;23.85;53.45;92659.50;4995490;28;20224;-84
2023/06/09 07:53:24;;;;;;;10.85;9.80;;;;;;;23.96;53.20;92671.91;5010355;28;20195;-85
2023/06/09 07:55:49;;;;;;;11.07;10.18;;;;;;;23.27;56.75;92646.41;4999558;28;20222;-81
2023/06/09 07:58:15;;;;;;;10.98;9.88;;;;;;;23.53;54.21;92659.03;5011701;28;20177;-84
2023/06/09 08:00:41;;;;;;;13.82;11.27;;;;;;;23.72;55.36;92670.38;5011690;28;20232;-84
2023/06/09 08:03:06;;;;;;;10.43;9.63;;;;;;;23.04;54.87;92634.19;5010481;28;20199;-84
2023/06/09 08:05:32;;;;;;;10.38;9.48;;;;;;;23.66;55.35;92666.47;5012338;28;20212;-83
2023/06/09 08:07:59;;;;;;;10.40;9.60;;;;;;;24.35;53.62;92664.44;5007079;28;20256;-85
2023/06/09 08:10:25;;;;;;;10.80;9.77;;;;;;;24.63;51.98;92676.25;5009962;28;20245;-84
2023/06/09 08:12:50;;;;;;;10.85;9.73;;;;;;;24.23;52.22;92651.31;4993607;28;20223;-84
2023/06/09 08:15:16;;;;;;;10.40;9.60;;;;;;;24.61;51.22;92670.50;5004767;28;20224;-85
2023/06/09 08:17:41;;;;;;;10.75;9.77;;;;;;;24.57;51.43;92660.91;4992427;28;20228;-82
2023/06/09 08:20:07;;;;;;;11.38;10.27;;;;;;;24.32;51.79;92657.16;5009040;28;20246;-85
2023/06/09 08:22:32;;;;;;;9.75;9.07;;;;;;;24.49;51.42;92665.41;4993898;28;20212;-85
2023/06/09 08:24:59;;;;;;;10.20;9.40;;;;;;;24.10;50.97;92634.75;5009601;28;20227;-84
2023/06/09 08:27:24;;;;;;;11.65;10.48;;;;;;;24.06;54.31;92638.50;5008821;28;20187;-82
2023/06/09 08:29:50;;;;;;;10.82;9.75;;;;;;;24.17;53.72;92637.53;4998867;28;20253;-81
2023/06/09 08:32:16;;;;;;;9.88;9.05;;;;;;;23.95;56.23;92657.00;5002392;28;20224;-83
2023/06/09 08:34:42;;;;;;;10.32;9.38;;;;;;;24.48;52.21;92660.41;5001231;28;20257;-84
2023/06/09 08:37:08;;;;;;;10.63;9.70;;;;;;;24.89;51.19;92660.19;4999734;28;20186;-84
2023/06/09 08:39:33;;;;;;;11.05;10.18;;;;;;;24.92;48.86;92639.97;5010383;28;20221;-83
2023/06/09 08:42:03;;;;;;;10.82;9.82;;;;;;;25.02;51.66;92660.69;5005934;28;20278;-83
2023/06/09 08:44:34;;;;;;;10.68;9.85;;;;;;;24.92;50.76;92661.34;5004991;28;20269;-83
2023/06/09 08:47:01;;;;;;;10.35;9.63;;;;;;;24.87;51.89;92651.00;5001458;28;20186;-83
2023/06/09 08:49:27;;;;;;;12.55;11.32;;;;;;;24.57;53.88;92639.56;5013811;28;20237;-83
2023/06/09 08:51:53;;;;;;;11.02;10.07;;;;;;;24.38;52.41;92631.69;4992455;28;20262;-83
2023/06/09 08:54:18;;;;;;;10.55;9.85;;;;;;;24.43;53.85;92624.16;4999849;28;20268;-82
2023/06/09 08:56:45;;;;;;;11.27;10.18;;;;;;;24.53;52.05;92623.47;5013485;28;20260;-82
2023/06/09 08:59:12;;;;;;;12.15;10.38;;;;;;;23.94;52.43;92636.78;5003116;28;20174;-82
2023/06/09 09:01:38;;;;;;;10.55;9.65;;;;;;;24.55;54.24;92642.59;5009028;28;20240;-83
2023/06/09 09:04:03;;;;;;;10.75;9.95;;;;;;;24.80;53.37;92637.56;5017300;28;20620;-83
2023/06/09 09:06:29;;;;;;;11.88;10.75;;;;;;;24.18;52.33;92648.97;5013485;28;20194;-82
2023/06/09 09:08:54;;;;;;;12.00;10.85;;;;;;;24.77;51.98;92641.72;5029305;28;20190;-83
2023/06/09 09:11:19;;;;;;;11.52;9.88;;;;;;;24.71;51.99;92634.41;5012708;28;20227;-83
2023/06/09 09:13:48;;;;;;;11.73;10.75;;;;;;;24.35;50.87;92541.66;5009562;28;20193;-82
2023/06/09 09:16:14;;;;;;;11.40;10.30;;;;;;;24.86;55.52;92636.09;5012583;28;20253;-82
2023/06/09 09:18:46;;;;;;;11.60;9.95;;;;;;;23.85;52.02;92592.84;5009373;28;20195;-83
2023/06/09 09:21:20;;;;;;;11.02;9.90;;;;;;;24.85;52.39;92626.53;5013366;28;20269;-84
2023/06/09 09:23:55;;;;;;;11.10;10.20;;;;;;;24.97;49.95;92615.59;5012765;28;20192;-82
2023/06/09 09:26:27;;;;;;;11.43;10.35;;;;;;;25.16;49.81;92623.44;5012951;28;20202;-84
2023/06/09 09:28:55;;;;;;;11.45;10.45;;;;;;;24.99;51.93;92630.16;5013519;28;20192;-83
2023/06/09 09:31:21;;;;;;;10.93;9.88;;;;;;;25.16;50.96;92597.47;5012380;28;20220;-83
2023/06/09 09:33:48;;;;;;;11.43;10.45;;;;;;;25.50;50.29;92608.84;5008574;28;20262;-82
2023/06/09 09:36:13;;;;;;;13.43;10.23;;;;;;;25.44;49.22;92618.34;5012102;28;20228;-83
2023/06/09 09:38:43;;;;;;;11.85;9.38;;;;;;;25.68;48.90;92617.78;4994642;28;20258;-83
2023/06/09 09:41:13;;;;;;;10.52;9.75;;;;;;;25.41;47.38;92595.03;5011799;28;20223;-83
2023/06/09 09:43:40;;;;;;;12.90;9.85;;;;;;;25.33;48.43;92598.78;5012927;28;20186;-83
2023/06/09 09:46:07;;;;;;;10.20;9.40;;;;;;;25.53;50.24;92586.72;5000138;28;20279;-79
2023/06/09 09:48:35;;;;;;;10.63;9.75;;;;;;;25.45;47.08;92593.16;5007927;28;20231;-82
2023/06/09 09:51:00;;;;;;;11.13;10.23;;;;;;;25.28;48.35;92615.13;5004540;28;20215;-82
2023/06/09 09:53:26;;;;;;;15.77;10.32;;;;;;;25.10;48.17;92608.88;5013051;28;20232;-83
2023/06/09 09:55:56;;;;;;;12.40;11.30;;;;;;;24.50;47.92;92607.44;5011621;28;20232;-81
2023/06/09 09:58:40;;;;;;;10.82;9.93;;;;;;;24.75;51.37;92611.94;5009003;28;20252;-83
2023/06/09 10:01:08;;;;;;;11.50;10.38;;;;;;;24.88;47.98;92612.47;5010335;28;20253;-82
2023/06/09 10:03:35;;;;;;;12.90;10.60;;;;;;;25.21;48.68;92602.47;5017075;28;20183;-83
2023/06/09 10:06:03;;;;;;;10.27;9.30;;;;;;;25.79;48.29;92605.25;4996342;28;20214;-81
2023/06/09 10:08:30;;;;;;;11.27;10.48;;;;;;;25.68;46.00;92593.72;5002583;28;20199;-81
2023/06/09 10:10:57;;;;;;;10.60;9.70;;;;;;;25.60;48.17;92600.16;5012409;28;20294;-82
2023/06/09 10:13:26;;;;;;;10.82;9.80;;;;;;;25.73;44.61;92593.34;5012431;28;20222;-82
2023/06/09 10:15:52;;;;;;;13.65;10.57;;;;;;;25.66;46.27;92603.25;5004262;28;20285;-82
2023/06/09 10:18:19;;;;;;;11.23;10.18;;;;;;;25.62;45.83;92600.53;5004363;28;20195;-82
2023/06/09 10:20:45;;;;;;;10.48;9.65;;;;;;;25.31;48.96;92603.69;5008948;28;20290;-82
2023/06/09 10:23:11;;;;;;;10.52;9.20;;;;;;;25.53;45.66;92584.03;5006321;28;20186;-82
2023/06/09 10:25:37;;;;;;;10.93;10.02;;;;;;;25.86;46.49;92599.94;5009687;28;20223;-83
2023/06/09 10:28:02;;;;;;;10.60;9.60;;;;;;;26.06;44.78;92590.53;5006326;28;20191;-84
2023/06/09 10:30:29;;;;;;;9.70;8.95;;;;;;;25.98;46.60;92594.28;5016182;28;20245;-83
2023/06/09 10:32:58;;;;;;;10.60;9.80;;;;;;;25.89;44.72;92559.06;5027915;28;20194;-82
2023/06/09 10:35:29;;;;;;;10.23;9.35;;;;;;;25.85;46.57;92571.66;5005410;28;20224;-82
2023/06/09 10:37:56;;;;;;;15.57;9.93;;;;;;;25.78;45.08;92573.50;4990115;28;20165;-83
2023/06/09 10:40:32;;;;;;;11.02;9.35;;;;;;;25.84;44.02;92588.09;5014432;28;20218;-83
2023/06/09 10:43:27;;;;;;;10.05;9.23;;;;;;;25.86;48.99;92575.88;4998479;28;20176;-81
2023/06/09 10:45:55;;;;;;;11.68;9.60;;;;;;;26.00;44.88;92572.53;5008945;28;20236;-82
2023/06/09 10:48:48;;;;;;;10.48;9.55;;;;;;;25.98;46.19;92585.47;4995273;28;20191;-83
2023/06/09 10:51:26;;;;;;;9.50;8.80;;;;;;;26.22;42.85;92582.97;5001429;28;20233;-83
2023/06/09 10:54:10;;;;;;;10.27;9.50;;;;;;;25.81;42.20;92592.25;5011561;28;20783;-83
2023/06/09 10:56:40;;;;;;;10.00;9.10;;;;;;;26.03;41.27;92582.47;5010005;28;20230;-82
2023/06/09 10:59:26;;;;;;;10.25;9.55;;;;;;;26.13;41.47;92553.09;5010661;28;20195;-82
2023/06/09 11:02:01;;;;;;;9.55;8.93;;;;;;;25.63;46.44;92569.22;4994808;28;20243;-80
2023/06/09 11:04:45;;;;;;;11.02;8.52;;;;;;;25.78;43.97;92574.28;5009717;28;20271;-81
2023/06/09 11:07:12;;;;;;;10.60;9.57;;;;;;;25.93;44.61;92565.19;5012402;28;20198;-82
2023/06/09 11:09:38;;;;;;;9.80;9.02;;;;;;;25.63;43.24;92540.56;5010020;28;20259;-81
2023/06/09 11:12:05;;;;;;;10.35;9.73;;;;;;;25.71;43.58;92542.16;5010141;28;20239;-81
2023/06/09 11:14:46;;;;;;;9.95;9.07;;;;;;;26.07;42.76;92557.28;5011881;28;20294;-80
2023/06/09 11:17:22;;;;;;;9.95;9.13;;;;;;;25.91;40.92;92550.66;5003520;28;20184;-80
2023/06/09 11:19:49;;;;;;;10.57;9.57;;;;;;;25.79;40.62;92559.75;5011312;28;20387;-81